Viola, Delaware
Current Conditions -  °F | °C
As of 2:58 PM on Sunday 25 Jan 2015 (Local Time) from KDOV Reporting Station
Broken Clouds Broken Clouds  
Wind Chill: 45°   Ceiling: 4400
Heat Index: 48°   Visibility: 10mi
Dew Point: 32°   Wind: 8mph
Humidity: 54%   Direction: 260°W
Pressure: 29.78"   Gusts: NA
Location:  39.04°N, 75.57°W
Report Text: KDOV 251958Z AUTO 26007KT 10SM BKN044 BKN110 09/00 A2978 RMK AO2 SLP088 T00910002 $
Loading
Personal Weather Stations






























Interactive Weather Map New forecast layout! Learn more

10-Day Weather Forecast

Advertisements
Track Severe Weather on mobile